sensor_id;sensor_type;location;lat;lon;timestamp;temperature;humidity
23083;DHT22;11709;52.420;10.538;2022-10-31T00:02:33;15.70;88.80
23083;DHT22;11709;52.420;10.538;2022-10-31T00:06:36;15.70;89.00
23083;DHT22;11709;52.420;10.538;2022-10-31T00:10:39;15.60;87.90
23083;DHT22;11709;52.420;10.538;2022-10-31T00:14:42;15.60;89.90
23083;DHT22;11709;52.420;10.538;2022-10-31T00:18:47;15.60;88.40
23083;DHT22;11709;52.420;10.538;2022-10-31T00:22:48;15.60;88.30
23083;DHT22;11709;52.420;10.538;2022-10-31T00:26:51;15.60;88.60
23083;DHT22;11709;52.420;10.538;2022-10-31T00:30:53;15.60;88.70
23083;DHT22;11709;52.420;10.538;2022-10-31T00:34:56;15.60;89.20
23083;DHT22;11709;52.420;10.538;2022-10-31T00:38:58;15.50;89.30
23083;DHT22;11709;52.420;10.538;2022-10-31T00:43:01;15.50;89.80
23083;DHT22;11709;52.420;10.538;2022-10-31T00:47:04;15.50;90.00
23083;DHT22;11709;52.420;10.538;2022-10-31T00:51:06;15.50;89.90
23083;DHT22;11709;52.420;10.538;2022-10-31T00:55:09;15.40;90.30
23083;DHT22;11709;52.420;10.538;2022-10-31T00:59:11;15.30;91.30
23083;DHT22;11709;52.420;10.538;2022-10-31T01:03:14;15.20;91.90
23083;DHT22;11709;52.420;10.538;2022-10-31T01:07:16;15.10;92.60
23083;DHT22;11709;52.420;10.538;2022-10-31T01:11:21;15.10;93.40
23083;DHT22;11709;52.420;10.538;2022-10-31T01:15:24;15.00;94.10
23083;DHT22;11709;52.420;10.538;2022-10-31T01:19:27;15.00;94.80
23083;DHT22;11709;52.420;10.538;2022-10-31T01:23:30;14.90;95.80
23083;DHT22;11709;52.420;10.538;2022-10-31T01:27:33;14.80;96.80
23083;DHT22;11709;52.420;10.538;2022-10-31T01:31:37;14.80;97.80
23083;DHT22;11709;52.420;10.538;2022-10-31T01:35:40;14.70;98.60
23083;DHT22;11709;52.420;10.538;2022-10-31T01:39:43;14.70;99.60
23083;DHT22;11709;52.420;10.538;2022-10-31T01:47:53;14.60;99.90
23083;DHT22;11709;52.420;10.538;2022-10-31T01:52:02;14.60;99.90
23083;DHT22;11709;52.420;10.538;2022-10-31T01:56:05;14.40;99.90
23083;DHT22;11709;52.420;10.538;2022-10-31T02:00:09;14.40;99.90
23083;DHT22;11709;52.420;10.538;2022-10-31T02:04:12;14.40;99.90
23083;DHT22;11709;52.420;10.538;2022-10-31T02:08:28;14.40;99.90
23083;DHT22;11709;52.420;10.538;2022-10-31T02:12:28;14.40;99.90
23083;DHT22;11709;52.420;10.538;2022-10-31T02:16:31;14.30;99.90
23083;DHT22;11709;52.420;10.538;2022-10-31T02:33:55;14.20;99.90
23083;DHT22;11709;52.420;10.538;2022-10-31T02:42:18;14.20;99.90
23083;DHT22;11709;52.420;10.538;2022-10-31T02:46:29;14.10;99.90
23083;DHT22;11709;52.420;10.538;2022-10-31T02:50:36;14.20;99.90
23083;DHT22;11709;52.420;10.538;2022-10-31T02:54:39;14.20;99.90
23083;DHT22;11709;52.420;10.538;2022-10-31T02:58:49;14.30;99.90
23083;DHT22;11709;52.420;10.538;2022-10-31T03:07:36;14.40;99.90
23083;DHT22;11709;52.420;10.538;2022-10-31T03:11:57;14.50;99.90
23083;DHT22;11709;52.420;10.538;2022-10-31T03:16:08;14.50;99.90
23083;DHT22;11709;52.420;10.538;2022-10-31T03:20:07;14.60;99.90
23083;DHT22;11709;52.420;10.538;2022-10-31T03:24:13;14.50;99.90
23083;DHT22;11709;52.420;10.538;2022-10-31T03:28:18;14.60;99.90
23083;DHT22;11709;52.420;10.538;2022-10-31T03:36:35;14.50;99.90
23083;DHT22;11709;52.420;10.538;2022-10-31T03:40:42;14.60;99.90
23083;DHT22;11709;52.420;10.538;2022-10-31T03:44:49;14.50;99.90
23083;DHT22;11709;52.420;10.538;2022-10-31T03:48:51;14.50;99.90
23083;DHT22;11709;52.420;10.538;2022-10-31T03:53:06;14.60;99.90
23083;DHT22;11709;52.420;10.538;2022-10-31T03:57:17;14.60;99.90
23083;DHT22;11709;52.420;10.538;2022-10-31T04:01:20;14.60;99.90
23083;DHT22;11709;52.420;10.538;2022-10-31T04:05:24;14.60;99.90
23083;DHT22;11709;52.420;10.538;2022-10-31T04:09:27;14.60;99.90
23083;DHT22;11709;52.420;10.538;2022-10-31T04:13:33;14.60;99.90
23083;DHT22;11709;52.420;10.538;2022-10-31T04:17:39;14.60;99.90
23083;DHT22;11709;52.420;10.538;2022-10-31T04:21:42;14.50;99.90
23083;DHT22;11709;52.420;10.538;2022-10-31T04:25:47;14.50;99.90
23083;DHT22;11709;52.420;10.538;2022-10-31T04:29:50;14.50;99.90
23083;DHT22;11709;52.420;10.538;2022-10-31T04:33:52;14.50;99.90
23083;DHT22;11709;52.420;10.538;2022-10-31T04:37:55;14.60;99.90
23083;DHT22;11709;52.420;10.538;2022-10-31T04:41:57;14.60;99.90
23083;DHT22;11709;52.420;10.538;2022-10-31T04:46:00;14.60;99.90
23083;DHT22;11709;52.420;10.538;2022-10-31T04:50:04;14.60;99.90
23083;DHT22;11709;52.420;10.538;2022-10-31T04:54:06;14.60;99.90
23083;DHT22;11709;52.420;10.538;2022-10-31T04:58:09;14.50;99.90
23083;DHT22;11709;52.420;10.538;2022-10-31T05:02:11;14.60;99.90
23083;DHT22;11709;52.420;10.538;2022-10-31T05:06:14;14.60;99.90
23083;DHT22;11709;52.420;10.538;2022-10-31T05:10:20;14.50;99.90
23083;DHT22;11709;52.420;10.538;2022-10-31T05:14:22;14.50;99.90
23083;DHT22;11709;52.420;10.538;2022-10-31T05:18:25;14.50;99.90
23083;DHT22;11709;52.420;10.538;2022-10-31T05:22:27;14.50;99.90
23083;DHT22;11709;52.420;10.538;2022-10-31T05:26:30;14.50;99.90
23083;DHT22;11709;52.420;10.538;2022-10-31T05:30:33;14.50;99.90
23083;DHT22;11709;52.420;10.538;2022-10-31T05:34:36;14.40;99.90
23083;DHT22;11709;52.420;10.538;2022-10-31T05:38:38;14.40;99.90
23083;DHT22;11709;52.420;10.538;2022-10-31T05:42:42;14.40;99.90
23083;DHT22;11709;52.420;10.538;2022-10-31T05:46:46;14.40;99.90
23083;DHT22;11709;52.420;10.538;2022-10-31T05:50:49;14.30;99.90
23083;DHT22;11709;52.420;10.538;2022-10-31T05:54:52;14.20;99.90
23083;DHT22;11709;52.420;10.538;2022-10-31T05:58:54;14.20;99.90
23083;DHT22;11709;52.420;10.538;2022-10-31T06:03:01;14.20;99.90
23083;DHT22;11709;52.420;10.538;2022-10-31T06:07:04;14.10;99.90
23083;DHT22;11709;52.420;10.538;2022-10-31T06:11:07;14.00;99.90
23083;DHT22;11709;52.420;10.538;2022-10-31T06:15:09;14.00;99.90
23083;DHT22;11709;52.420;10.538;2022-10-31T06:19:12;13.90;99.90
23083;DHT22;11709;52.420;10.538;2022-10-31T06:23:14;13.90;99.90
23083;DHT22;11709;52.420;10.538;2022-10-31T06:27:17;13.80;99.90
23083;DHT22;11709;52.420;10.538;2022-10-31T06:31:20;13.70;99.90
23083;DHT22;11709;52.420;10.538;2022-10-31T06:35:22;13.70;99.90
23083;DHT22;11709;52.420;10.538;2022-10-31T06:39:25;13.70;99.90
23083;DHT22;11709;52.420;10.538;2022-10-31T06:43:27;13.70;99.90
23083;DHT22;11709;52.420;10.538;2022-10-31T06:47:29;13.70;99.90
23083;DHT22;11709;52.420;10.538;2022-10-31T06:51:32;13.70;99.90
23083;DHT22;11709;52.420;10.538;2022-10-31T06:55:34;13.70;99.90
23083;DHT22;11709;52.420;10.538;2022-10-31T06:59:37;13.70;99.90
23083;DHT22;11709;52.420;10.538;2022-10-31T07:03:39;13.80;99.90
23083;DHT22;11709;52.420;10.538;2022-10-31T07:07:42;13.90;99.90
23083;DHT22;11709;52.420;10.538;2022-10-31T07:11:44;14.00;99.90
23083;DHT22;11709;52.420;10.538;2022-10-31T07:15:47;14.10;99.90
23083;DHT22;11709;52.420;10.538;2022-10-31T07:19:49;14.20;99.90
23083;DHT22;11709;52.420;10.538;2022-10-31T07:23:52;14.20;99.90
23083;DHT22;11709;52.420;10.538;2022-10-31T07:27:55;14.30;99.90
23083;DHT22;11709;52.420;10.538;2022-10-31T07:31:58;14.30;99.90
23083;DHT22;11709;52.420;10.538;2022-10-31T07:36:00;14.40;99.90
23083;DHT22;11709;52.420;10.538;2022-10-31T07:40:04;14.50;99.90
23083;DHT22;11709;52.420;10.538;2022-10-31T07:44:07;14.60;99.90
23083;DHT22;11709;52.420;10.538;2022-10-31T07:48:10;14.70;99.90
23083;DHT22;11709;52.420;10.538;2022-10-31T07:52:12;14.80;99.90
23083;DHT22;11709;52.420;10.538;2022-10-31T07:56:15;14.70;99.90
23083;DHT22;11709;52.420;10.538;2022-10-31T08:00:17;14.80;99.90
23083;DHT22;11709;52.420;10.538;2022-10-31T08:04:20;14.70;99.90
23083;DHT22;11709;52.420;10.538;2022-10-31T08:08:22;14.70;99.90
23083;DHT22;11709;52.420;10.538;2022-10-31T08:12:25;14.70;99.90
23083;DHT22;11709;52.420;10.538;2022-10-31T08:16:28;14.80;99.90
23083;DHT22;11709;52.420;10.538;2022-10-31T08:20:30;14.90;99.90
23083;DHT22;11709;52.420;10.538;2022-10-31T08:24:33;15.00;99.90
23083;DHT22;11709;52.420;10.538;2022-10-31T08:28:36;15.10;99.90
23083;DHT22;11709;52.420;10.538;2022-10-31T08:32:38;15.00;99.90
23083;DHT22;11709;52.420;10.538;2022-10-31T08:36:41;15.00;99.90
23083;DHT22;11709;52.420;10.538;2022-10-31T08:40:48;15.00;99.90
23083;DHT22;11709;52.420;10.538;2022-10-31T08:44:51;14.90;99.90
23083;DHT22;11709;52.420;10.538;2022-10-31T08:48:53;14.70;99.90
23083;DHT22;11709;52.420;10.538;2022-10-31T08:53:04;14.80;99.90
23083;DHT22;11709;52.420;10.538;2022-10-31T08:57:07;14.90;99.90
23083;DHT22;11709;52.420;10.538;2022-10-31T09:01:09;14.90;99.90
23083;DHT22;11709;52.420;10.538;2022-10-31T09:05:12;14.90;99.90
23083;DHT22;11709;52.420;10.538;2022-10-31T09:09:14;15.00;99.90
23083;DHT22;11709;52.420;10.538;2022-10-31T09:13:19;15.00;99.90
23083;DHT22;11709;52.420;10.538;2022-10-31T09:17:22;15.00;99.90
23083;DHT22;11709;52.420;10.538;2022-10-31T09:21:24;15.00;99.90
23083;DHT22;11709;52.420;10.538;2022-10-31T09:25:27;15.10;99.90
23083;DHT22;11709;52.420;10.538;2022-10-31T09:29:30;15.00;99.90
23083;DHT22;11709;52.420;10.538;2022-10-31T09:33:33;15.10;99.90
23083;DHT22;11709;52.420;10.538;2022-10-31T09:37:35;15.20;99.90
23083;DHT22;11709;52.420;10.538;2022-10-31T09:50:41;15.30;99.90
23083;DHT22;11709;52.420;10.538;2022-10-31T09:59:10;15.40;99.90
23083;DHT22;11709;52.420;10.538;2022-10-31T10:07:44;15.70;99.90
23083;DHT22;11709;52.420;10.538;2022-10-31T10:11:50;15.70;99.90
23083;DHT22;11709;52.420;10.538;2022-10-31T10:20:25;15.80;99.90
23083;DHT22;11709;52.420;10.538;2022-10-31T10:28:33;16.00;99.90
23083;DHT22;11709;52.420;10.538;2022-10-31T10:32:50;16.20;99.90
23083;DHT22;11709;52.420;10.538;2022-10-31T10:37:01;16.40;99.90
23083;DHT22;11709;52.420;10.538;2022-10-31T10:41:08;16.70;99.90
23083;DHT22;11709;52.420;10.538;2022-10-31T10:45:17;17.00;99.90
23083;DHT22;11709;52.420;10.538;2022-10-31T10:49:49;17.20;99.90
23083;DHT22;11709;52.420;10.538;2022-10-31T10:53:58;17.30;99.90
23083;DHT22;11709;52.420;10.538;2022-10-31T10:58:03;17.50;99.90
23083;DHT22;11709;52.420;10.538;2022-10-31T11:02:18;17.70;99.90
23083;DHT22;11709;52.420;10.538;2022-10-31T11:06:25;18.00;99.90
23083;DHT22;11709;52.420;10.538;2022-10-31T11:10:27;18.20;99.90
23083;DHT22;11709;52.420;10.538;2022-10-31T11:14:30;18.30;99.90
23083;DHT22;11709;52.420;10.538;2022-10-31T11:18:36;18.60;99.90
23083;DHT22;11709;52.420;10.538;2022-10-31T11:22:39;18.90;97.60
23083;DHT22;11709;52.420;10.538;2022-10-31T11:26:44;19.20;86.70
23083;DHT22;11709;52.420;10.538;2022-10-31T11:30:58;19.60;69.10
23083;DHT22;11709;52.420;10.538;2022-10-31T11:35:03;19.70;69.60
23083;DHT22;11709;52.420;10.538;2022-10-31T11:39:13;19.50;68.80
23083;DHT22;11709;52.420;10.538;2022-10-31T11:43:16;19.60;70.20
23083;DHT22;11709;52.420;10.538;2022-10-31T11:47:30;19.80;66.90
23083;DHT22;11709;52.420;10.538;2022-10-31T11:51:34;19.60;63.90
23083;DHT22;11709;52.420;10.538;2022-10-31T11:55:38;19.60;64.40
23083;DHT22;11709;52.420;10.538;2022-10-31T11:59:50;19.90;64.80
23083;DHT22;11709;52.420;10.538;2022-10-31T12:03:51;20.00;66.40
23083;DHT22;11709;52.420;10.538;2022-10-31T12:07:52;20.30;59.10
23083;DHT22;11709;52.420;10.538;2022-10-31T12:12:10;20.20;45.80
23083;DHT22;11709;52.420;10.538;2022-10-31T12:16:28;20.50;42.70
23083;DHT22;11709;52.420;10.538;2022-10-31T12:20:33;20.70;35.60
23083;DHT22;11709;52.420;10.538;2022-10-31T12:38:25;21.50;26.50
23083;DHT22;11709;52.420;10.538;2022-10-31T12:41:58;21.90;19.00
23083;DHT22;11709;52.420;10.538;2022-10-31T12:45:59;22.10;16.90
23083;DHT22;11709;52.420;10.538;2022-10-31T12:50:19;22.00;13.80
23083;DHT22;11709;52.420;10.538;2022-10-31T12:54:49;22.20;5.80
23083;DHT22;11709;52.420;10.538;2022-10-31T12:59:00;21.70;2.70
23083;DHT22;11709;52.420;10.538;2022-10-31T13:07:36;20.90;9.70
23083;DHT22;11709;52.420;10.538;2022-10-31T13:11:40;20.60;10.10
23083;DHT22;11709;52.420;10.538;2022-10-31T13:15:57;20.60;12.30
23083;DHT22;11709;52.420;10.538;2022-10-31T13:20:11;21.00;14.30
23083;DHT22;11709;52.420;10.538;2022-10-31T13:24:10;20.70;16.20
23083;DHT22;11709;52.420;10.538;2022-10-31T13:32:49;21.70;17.90
23083;DHT22;11709;52.420;10.538;2022-10-31T13:36:50;21.80;8.30
23083;DHT22;11709;52.420;10.538;2022-10-31T13:40:58;22.00;8.40
23083;DHT22;11709;52.420;10.538;2022-10-31T13:45:19;22.00;10.30
23083;DHT22;11709;52.420;10.538;2022-10-31T13:53:41;21.40;1.00
23083;DHT22;11709;52.420;10.538;2022-10-31T13:57:44;21.20;1.20
23083;DHT22;11709;52.420;10.538;2022-10-31T14:01:58;20.90;5.20
23083;DHT22;11709;52.420;10.538;2022-10-31T14:06:01;20.90;8.70
23083;DHT22;11709;52.420;10.538;2022-10-31T14:14:33;20.40;11.80
23083;DHT22;11709;52.420;10.538;2022-10-31T14:18:39;20.10;14.50
23083;DHT22;11709;52.420;10.538;2022-10-31T14:22:43;19.80;16.90
23083;DHT22;11709;52.420;10.538;2022-10-31T14:26:57;19.80;17.50
23083;DHT22;11709;52.420;10.538;2022-10-31T14:31:00;19.80;21.40
23083;DHT22;11709;52.420;10.538;2022-10-31T14:35:03;19.40;23.50
23083;DHT22;11709;52.420;10.538;2022-10-31T14:39:17;19.00;36.30
23083;DHT22;11709;52.420;10.538;2022-10-31T14:52:14;18.30;59.90
23083;DHT22;11709;52.420;10.538;2022-10-31T14:56:32;18.00;70.90
23083;DHT22;11709;52.420;10.538;2022-10-31T15:00:35;17.80;86.80
23083;DHT22;11709;52.420;10.538;2022-10-31T15:04:38;17.70;98.30
23083;DHT22;11709;52.420;10.538;2022-10-31T15:08:47;17.40;99.90
23083;DHT22;11709;52.420;10.538;2022-10-31T15:12:50;17.20;99.90
23083;DHT22;11709;52.420;10.538;2022-10-31T15:16:53;17.10;99.90
23083;DHT22;11709;52.420;10.538;2022-10-31T15:20:57;16.80;99.90
23083;DHT22;11709;52.420;10.538;2022-10-31T15:25:01;16.80;99.90
23083;DHT22;11709;52.420;10.538;2022-10-31T15:29:11;16.50;99.90
23083;DHT22;11709;52.420;10.538;2022-10-31T15:33:25;16.50;99.90
23083;DHT22;11709;52.420;10.538;2022-10-31T15:37:27;16.40;99.90
23083;DHT22;11709;52.420;10.538;2022-10-31T15:45:38;16.20;99.90
23083;DHT22;11709;52.420;10.538;2022-10-31T15:49:49;16.20;99.90
23083;DHT22;11709;52.420;10.538;2022-10-31T15:53:53;16.00;99.90
23083;DHT22;11709;52.420;10.538;2022-10-31T15:58:00;16.00;99.90
23083;DHT22;11709;52.420;10.538;2022-10-31T16:02:08;15.90;99.90
23083;DHT22;11709;52.420;10.538;2022-10-31T16:06:19;15.90;99.90
23083;DHT22;11709;52.420;10.538;2022-10-31T16:10:24;15.80;99.90
23083;DHT22;11709;52.420;10.538;2022-10-31T16:14:30;15.70;99.90
23083;DHT22;11709;52.420;10.538;2022-10-31T16:18:34;15.50;99.90
23083;DHT22;11709;52.420;10.538;2022-10-31T16:22:39;15.50;99.90
23083;DHT22;11709;52.420;10.538;2022-10-31T16:26:46;15.50;99.90
23083;DHT22;11709;52.420;10.538;2022-10-31T16:30:48;15.30;99.90
23083;DHT22;11709;52.420;10.538;2022-10-31T16:39:13;15.20;99.90
23083;DHT22;11709;52.420;10.538;2022-10-31T16:43:18;15.20;99.90
23083;DHT22;11709;52.420;10.538;2022-10-31T16:47:21;15.20;99.90
23083;DHT22;11709;52.420;10.538;2022-10-31T16:51:25;15.10;99.90
23083;DHT22;11709;52.420;10.538;2022-10-31T16:55:27;15.10;99.90
23083;DHT22;11709;52.420;10.538;2022-10-31T16:59:30;15.10;99.90
23083;DHT22;11709;52.420;10.538;2022-10-31T17:03:37;15.10;99.90
23083;DHT22;11709;52.420;10.538;2022-10-31T17:07:40;15.10;99.90
23083;DHT22;11709;52.420;10.538;2022-10-31T17:11:48;15.00;99.90
23083;DHT22;11709;52.420;10.538;2022-10-31T17:15:54;15.00;99.90
23083;DHT22;11709;52.420;10.538;2022-10-31T17:19:56;15.00;99.90
23083;DHT22;11709;52.420;10.538;2022-10-31T17:23:59;15.00;99.90
23083;DHT22;11709;52.420;10.538;2022-10-31T17:28:02;15.00;99.90
23083;DHT22;11709;52.420;10.538;2022-10-31T17:32:05;15.00;99.90
23083;DHT22;11709;52.420;10.538;2022-10-31T17:36:07;15.00;99.90
23083;DHT22;11709;52.420;10.538;2022-10-31T17:40:11;15.10;99.90
23083;DHT22;11709;52.420;10.538;2022-10-31T17:44:14;15.10;99.90
23083;DHT22;11709;52.420;10.538;2022-10-31T17:48:17;15.10;99.90
23083;DHT22;11709;52.420;10.538;2022-10-31T17:52:19;15.00;99.90
23083;DHT22;11709;52.420;10.538;2022-10-31T17:56:22;15.00;99.90
23083;DHT22;11709;52.420;10.538;2022-10-31T18:00:24;15.00;99.90
23083;DHT22;11709;52.420;10.538;2022-10-31T18:04:27;14.90;99.90
23083;DHT22;11709;52.420;10.538;2022-10-31T18:08:31;14.90;99.90
23083;DHT22;11709;52.420;10.538;2022-10-31T18:12:37;14.90;99.90
23083;DHT22;11709;52.420;10.538;2022-10-31T18:16:39;14.90;99.90
23083;DHT22;11709;52.420;10.538;2022-10-31T18:20:42;14.90;99.90
23083;DHT22;11709;52.420;10.538;2022-10-31T18:24:45;14.80;99.90
23083;DHT22;11709;52.420;10.538;2022-10-31T18:28:48;14.80;99.90
23083;DHT22;11709;52.420;10.538;2022-10-31T18:32:51;14.70;99.90
23083;DHT22;11709;52.420;10.538;2022-10-31T18:36:53;14.70;99.90
23083;DHT22;11709;52.420;10.538;2022-10-31T18:40:56;14.60;99.90
23083;DHT22;11709;52.420;10.538;2022-10-31T18:44:58;14.70;99.90
23083;DHT22;11709;52.420;10.538;2022-10-31T18:49:02;14.70;99.90
23083;DHT22;11709;52.420;10.538;2022-10-31T18:53:05;14.60;99.90
23083;DHT22;11709;52.420;10.538;2022-10-31T18:57:08;14.60;99.90
23083;DHT22;11709;52.420;10.538;2022-10-31T19:01:11;14.60;99.90
23083;DHT22;11709;52.420;10.538;2022-10-31T19:05:14;14.60;99.90
23083;DHT22;11709;52.420;10.538;2022-10-31T19:09:17;14.50;99.90
23083;DHT22;11709;52.420;10.538;2022-10-31T19:13:19;14.50;99.90
23083;DHT22;11709;52.420;10.538;2022-10-31T19:17:24;14.50;99.90
23083;DHT22;11709;52.420;10.538;2022-10-31T19:21:27;14.40;99.90
23083;DHT22;11709;52.420;10.538;2022-10-31T19:25:30;14.50;99.90
23083;DHT22;11709;52.420;10.538;2022-10-31T19:29:33;14.40;99.90
23083;DHT22;11709;52.420;10.538;2022-10-31T19:33:36;14.40;99.90
23083;DHT22;11709;52.420;10.538;2022-10-31T19:37:39;14.40;99.90
23083;DHT22;11709;52.420;10.538;2022-10-31T19:41:42;14.40;99.90
23083;DHT22;11709;52.420;10.538;2022-10-31T19:46:01;14.30;99.90
23083;DHT22;11709;52.420;10.538;2022-10-31T19:49:59;14.30;99.90
23083;DHT22;11709;52.420;10.538;2022-10-31T19:54:02;14.30;99.90
23083;DHT22;11709;52.420;10.538;2022-10-31T19:58:05;14.30;99.90
23083;DHT22;11709;52.420;10.538;2022-10-31T20:02:10;14.20;99.90
23083;DHT22;11709;52.420;10.538;2022-10-31T20:06:23;14.20;99.90
23083;DHT22;11709;52.420;10.538;2022-10-31T20:10:26;14.20;99.90
23083;DHT22;11709;52.420;10.538;2022-10-31T20:14:29;14.20;99.90
23083;DHT22;11709;52.420;10.538;2022-10-31T20:18:32;14.10;99.90
23083;DHT22;11709;52.420;10.538;2022-10-31T20:22:35;14.10;99.90
23083;DHT22;11709;52.420;10.538;2022-10-31T20:26:39;14.10;99.90
23083;DHT22;11709;52.420;10.538;2022-10-31T20:30:42;14.00;99.90
23083;DHT22;11709;52.420;10.538;2022-10-31T20:34:44;14.00;99.90
23083;DHT22;11709;52.420;10.538;2022-10-31T20:38:47;14.00;99.90
23083;DHT22;11709;52.420;10.538;2022-10-31T20:42:50;14.00;99.90
23083;DHT22;11709;52.420;10.538;2022-10-31T20:46:52;14.00;99.90
23083;DHT22;11709;52.420;10.538;2022-10-31T20:51:02;14.00;99.90
23083;DHT22;11709;52.420;10.538;2022-10-31T20:55:00;14.00;99.90
23083;DHT22;11709;52.420;10.538;2022-10-31T20:59:03;14.00;99.90
23083;DHT22;11709;52.420;10.538;2022-10-31T21:03:07;14.00;99.90
23083;DHT22;11709;52.420;10.538;2022-10-31T21:07:10;13.90;99.90
23083;DHT22;11709;52.420;10.538;2022-10-31T21:11:15;13.90;99.90
23083;DHT22;11709;52.420;10.538;2022-10-31T21:15:17;13.90;99.90
23083;DHT22;11709;52.420;10.538;2022-10-31T21:19:20;13.90;99.90
23083;DHT22;11709;52.420;10.538;2022-10-31T21:23:23;13.90;99.90
23083;DHT22;11709;52.420;10.538;2022-10-31T21:27:25;13.90;99.90
23083;DHT22;11709;52.420;10.538;2022-10-31T21:31:28;13.90;99.90
23083;DHT22;11709;52.420;10.538;2022-10-31T21:35:30;13.90;99.90
23083;DHT22;11709;52.420;10.538;2022-10-31T21:39:33;13.90;99.90
23083;DHT22;11709;52.420;10.538;2022-10-31T21:43:37;13.90;99.90
23083;DHT22;11709;52.420;10.538;2022-10-31T21:47:40;13.90;99.90
23083;DHT22;11709;52.420;10.538;2022-10-31T21:51:42;13.90;99.90
23083;DHT22;11709;52.420;10.538;2022-10-31T21:55:46;13.90;99.90
23083;DHT22;11709;52.420;10.538;2022-10-31T21:59:49;13.90;99.90
23083;DHT22;11709;52.420;10.538;2022-10-31T22:03:52;13.40;99.90
23083;DHT22;11709;52.420;10.538;2022-10-31T22:07:54;13.70;99.90
23083;DHT22;11709;52.420;10.538;2022-10-31T22:11:57;13.80;99.90
23083;DHT22;11709;52.420;10.538;2022-10-31T22:16:03;13.80;99.90
23083;DHT22;11709;52.420;10.538;2022-10-31T22:20:06;13.70;99.90
23083;DHT22;11709;52.420;10.538;2022-10-31T22:24:10;13.70;99.90
23083;DHT22;11709;52.420;10.538;2022-10-31T22:28:12;13.70;99.90
23083;DHT22;11709;52.420;10.538;2022-10-31T22:32:15;13.70;99.90
23083;DHT22;11709;52.420;10.538;2022-10-31T22:36:20;13.70;99.90
23083;DHT22;11709;52.420;10.538;2022-10-31T22:40:23;13.60;99.90
23083;DHT22;11709;52.420;10.538;2022-10-31T22:44:25;13.60;99.90
23083;DHT22;11709;52.420;10.538;2022-10-31T22:48:30;13.60;99.90
23083;DHT22;11709;52.420;10.538;2022-10-31T22:52:33;13.60;99.90
23083;DHT22;11709;52.420;10.538;2022-10-31T22:56:36;13.60;99.90
23083;DHT22;11709;52.420;10.538;2022-10-31T23:00:39;13.60;99.90
23083;DHT22;11709;52.420;10.538;2022-10-31T23:04:42;13.50;99.90
23083;DHT22;11709;52.420;10.538;2022-10-31T23:08:45;13.60;99.90
23083;DHT22;11709;52.420;10.538;2022-10-31T23:12:47;13.60;99.90
23083;DHT22;11709;52.420;10.538;2022-10-31T23:17:07;13.50;99.90
23083;DHT22;11709;52.420;10.538;2022-10-31T23:21:12;13.50;99.90
23083;DHT22;11709;52.420;10.538;2022-10-31T23:25:16;13.50;99.90
23083;DHT22;11709;52.420;10.538;2022-10-31T23:29:39;13.40;99.90
23083;DHT22;11709;52.420;10.538;2022-10-31T23:33:42;13.40;99.90
23083;DHT22;11709;52.420;10.538;2022-10-31T23:37:44;13.40;99.90
23083;DHT22;11709;52.420;10.538;2022-10-31T23:41:47;13.40;99.90
23083;DHT22;11709;52.420;10.538;2022-10-31T23:45:50;13.30;99.90
23083;DHT22;11709;52.420;10.538;2022-10-31T23:49:52;13.30;99.90
23083;DHT22;11709;52.420;10.538;2022-10-31T23:53:55;13.30;99.90
23083;DHT22;11709;52.420;10.538;2022-10-31T23:57:57;13.30;99.90
